Time;durP1;ratioP1;P1;durP2;ratioP2;P2;SDS_P1;SDS_P2;PMS_P1;PMS_P2;Temp;Humidity;BMP_temperature;BMP_pressure;BME280_temperature;BME280_humidity;BME280_pressure;Samples;Min_cycle;Max_cycle;Signal;HPM_P1;HPM_P2
2021/01/22 00:00:37;;;;;;;1.75;0.70;;;;;;;10.11;73.78;96559.22;4994268;28;20053;-81
2021/01/22 00:03:04;;;;;;;1.35;0.50;;;;;;;10.20;73.48;96553.97;4992617;28;20050;-81
2021/01/22 00:05:31;;;;;;;2.67;0.68;;;;;;;10.26;73.32;96548.88;4994097;28;20054;-81
2021/01/22 00:07:57;;;;;;;3.67;0.95;;;;;;;10.34;73.00;96542.78;4977115;28;20057;-81
2021/01/22 00:10:23;;;;;;;1.20;0.60;;;;;;;10.36;72.97;96527.66;4994072;28;20558;-81
2021/01/22 00:12:51;;;;;;;0.95;0.57;;;;;;;10.41;72.79;96535.06;4994018;28;20046;-81
2021/01/22 00:15:17;;;;;;;1.60;0.85;;;;;;;10.45;72.61;96527.69;4993992;28;20420;-81
2021/01/22 00:17:43;;;;;;;1.40;0.75;;;;;;;10.50;72.48;96522.75;4994166;28;20124;-81
2021/01/22 00:20:10;;;;;;;0.90;0.63;;;;;;;10.52;72.47;96524.25;4993808;28;20046;-81
2021/01/22 00:22:36;;;;;;;1.50;0.63;;;;;;;10.55;72.22;96510.72;4993739;28;20504;-81
2021/01/22 00:25:04;;;;;;;1.88;0.60;;;;;;;10.59;72.17;96519.13;4994178;28;20051;-81
2021/01/22 00:27:30;;;;;;;2.53;0.73;;;;;;;10.64;72.11;96510.72;4994075;28;20053;-81
2021/01/22 00:29:59;;;;;;;2.25;1.00;;;;;;;10.66;72.10;96521.91;4993948;28;20177;-81
2021/01/22 00:32:27;;;;;;;1.65;1.05;;;;;;;10.67;71.82;96511.22;4993851;28;20046;-81
2021/01/22 00:34:56;;;;;;;1.02;0.60;;;;;;;10.66;71.65;96509.56;4993943;28;20086;-81
2021/01/22 00:37:22;;;;;;;0.70;0.60;;;;;;;10.66;71.69;96516.63;4992750;28;20050;-80
2021/01/22 00:39:48;;;;;;;4.68;0.93;;;;;;;10.63;71.78;96502.03;4993934;28;20388;-81
2021/01/22 00:42:14;;;;;;;1.95;0.70;;;;;;;10.60;71.78;96498.88;4993599;28;20057;-81
2021/01/22 00:44:41;;;;;;;1.88;1.00;;;;;;;10.57;72.14;96507.94;4995703;28;20443;-81
2021/01/22 00:47:07;;;;;;;2.38;0.77;;;;;;;10.55;72.21;96504.66;4996387;28;20090;-81
2021/01/22 00:49:34;;;;;;;1.88;0.70;;;;;;;10.54;72.09;96489.84;4996347;28;20125;-81
2021/01/22 00:52:00;;;;;;;1.05;0.63;;;;;;;10.53;72.20;96501.38;4997544;28;20051;-81
2021/01/22 00:54:27;;;;;;;1.80;0.80;;;;;;;10.50;72.26;96502.53;4997819;28;20454;-81
2021/01/22 00:56:55;;;;;;;1.27;0.80;;;;;;;10.49;72.40;96482.50;4997589;28;20098;-80
2021/01/22 00:59:21;;;;;;;3.97;0.77;;;;;;;10.48;72.62;96495.81;4997192;28;20054;-81
2021/01/22 01:01:47;;;;;;;6.72;0.95;;;;;;;10.46;72.52;96488.06;4989171;28;20054;-81
2021/01/22 01:04:15;;;;;;;1.63;0.85;;;;;;;10.46;72.66;96480.19;4997228;28;20130;-81
2021/01/22 01:06:41;;;;;;;2.25;0.60;;;;;;;10.45;72.53;96483.81;4997205;28;20054;-81
2021/01/22 01:09:08;;;;;;;2.60;0.80;;;;;;;10.45;72.65;96485.59;4996361;28;20062;-81
2021/01/22 01:11:35;;;;;;;3.80;0.77;;;;;;;10.43;72.63;96477.84;4997477;28;20053;-81
2021/01/22 01:14:01;;;;;;;1.65;0.80;;;;;;;10.41;72.95;96472.78;4996786;28;20058;-81
2021/01/22 01:16:27;;;;;;;1.20;0.80;;;;;;;10.39;73.06;96480.00;4996972;28;20082;-82
2021/01/22 01:18:54;;;;;;;2.97;0.90;;;;;;;10.40;72.96;96465.06;4995901;28;20129;-81
2021/01/22 01:21:22;;;;;;;2.85;0.80;;;;;;;10.37;73.24;96470.66;4997008;28;20053;-81
2021/01/22 01:23:49;;;;;;;3.42;0.60;;;;;;;10.36;73.29;96466.38;4995754;28;20416;-81
2021/01/22 01:26:20;;;;;;;2.70;1.20;;;;;;;10.34;73.26;96463.91;4996026;28;20554;-82
2021/01/22 01:28:46;;;;;;;3.75;1.08;;;;;;;10.29;73.23;96459.16;4998637;28;20495;-81
2021/01/22 01:31:13;;;;;;;3.75;0.80;;;;;;;10.32;73.21;96452.72;5016407;28;20049;-81
2021/01/22 01:33:40;;;;;;;3.00;0.80;;;;;;;10.33;73.31;96448.31;5015806;28;20100;-81
2021/01/22 01:36:06;;;;;;;2.92;0.93;;;;;;;10.34;73.12;96452.56;4999131;28;20054;-82
2021/01/22 01:38:33;;;;;;;3.65;0.65;;;;;;;10.34;73.27;96444.69;5016297;28;20049;-81
2021/01/22 01:41:04;;;;;;;1.98;1.08;;;;;;;10.32;73.56;96441.41;5016219;28;20056;-82
2021/01/22 01:43:33;;;;;;;1.85;0.63;;;;;;;10.30;73.32;96434.53;4999154;28;20120;-81
2021/01/22 01:45:59;;;;;;;1.10;0.68;;;;;;;10.30;73.31;96437.16;4999519;28;20050;-81
2021/01/22 01:48:28;;;;;;;2.38;0.70;;;;;;;10.28;73.69;96433.06;4998686;28;20074;-82
2021/01/22 01:50:58;;;;;;;3.83;0.80;;;;;;;10.26;73.58;96427.97;5016228;28;20057;-81
2021/01/22 01:53:24;;;;;;;3.03;0.70;;;;;;;10.25;73.58;96428.13;4998300;28;20053;-81
2021/01/22 01:55:52;;;;;;;4.35;0.98;;;;;;;10.24;73.93;96440.44;5015191;28;20502;-82
2021/01/22 01:58:19;;;;;;;4.20;0.90;;;;;;;10.22;73.99;96447.69;4998334;28;20046;-81
2021/01/22 02:00:46;;;;;;;2.63;1.05;;;;;;;10.20;74.24;96428.63;5016009;28;20056;-82
2021/01/22 02:03:12;;;;;;;1.92;1.10;;;;;;;10.20;74.10;96419.94;4997787;28;20054;-82
2021/01/22 02:05:39;;;;;;;2.90;0.90;;;;;;;10.16;74.26;96424.69;5015648;28;20050;-81
2021/01/22 02:08:06;;;;;;;3.65;0.90;;;;;;;10.14;74.39;96403.81;5015719;28;20050;-82
2021/01/22 02:10:35;;;;;;;1.98;1.00;;;;;;;10.12;74.57;96418.94;5015453;28;20054;-82
2021/01/22 02:13:05;;;;;;;2.58;0.77;;;;;;;10.08;74.90;96403.69;4998319;28;20046;-82
2021/01/22 02:15:32;;;;;;;1.63;0.70;;;;;;;10.09;74.75;96414.03;5015622;28;20049;-81
2021/01/22 02:18:02;;;;;;;3.85;1.05;;;;;;;10.06;74.95;96422.25;5046164;23;20545;-85
2021/01/22 02:20:45;;;;;;;3.95;0.88;;;;;;;10.02;75.91;96434.91;4997485;28;20469;-84
2021/01/22 02:23:17;;;;;;;39.03;1.85;;;;;;;10.02;75.79;96520.81;4980619;28;20050;-85
2021/01/22 02:25:44;;;;;;;3.45;0.88;;;;;;;10.03;75.14;96554.78;4996894;28;20056;-86
2021/01/22 02:28:15;;;;;;;0.22;0.20;;;;;;;10.01;72.79;96571.69;4996624;28;20400;-86
2021/01/22 02:31:15;;;;;;;0.20;0.20;;;;;;;9.89;71.39;96577.28;4980855;28;20451;-85
2021/01/22 02:34:04;;;;;;;0.60;0.50;;;;;;;9.68;70.91;96580.34;4995674;28;20517;-85
2021/01/22 02:36:46;;;;;;;1.05;0.40;;;;;;;9.41;71.27;96587.50;4978630;28;20142;-86
2021/01/22 02:39:53;;;;;;;0.47;0.47;;;;;;;9.18;70.94;96616.09;4979236;28;20066;-86
2021/01/22 02:42:27;;;;;;;0.55;0.52;;;;;;;8.95;70.83;96632.38;4978982;28;20137;-85
2021/01/22 02:44:54;;;;;;;0.65;0.55;;;;;;;8.75;71.20;96644.88;4995755;28;20392;-86
2021/01/22 02:47:28;;;;;;;0.60;0.60;;;;;;;8.54;71.27;96656.53;4995362;28;20051;-85
2021/01/22 02:49:54;;;;;;;0.50;0.50;;;;;;;8.33;71.48;96662.88;4995767;28;20054;-85
2021/01/22 02:52:20;;;;;;;1.20;0.60;;;;;;;8.14;71.45;96667.28;4995051;28;20046;-85
2021/01/22 02:54:50;;;;;;;0.50;0.50;;;;;;;7.98;71.42;96675.81;4978135;28;20174;-85
2021/01/22 02:57:25;;;;;;;0.30;0.30;;;;;;;7.76;71.41;96700.59;4977970;28;20054;-85
2021/01/22 03:00:06;;;;;;;0.65;0.40;;;;;;;7.59;71.71;96716.09;4995387;28;20057;-86
2021/01/22 03:02:46;;;;;;;0.50;0.50;;;;;;;7.45;71.90;96732.28;4977733;28;20062;-85
2021/01/22 03:05:15;;;;;;;0.50;0.50;;;;;;;7.31;72.10;96750.09;4978096;28;20046;-85
2021/01/22 03:07:58;;;;;;;1.02;0.70;;;;;;;7.15;72.05;96756.72;4995032;28;20081;-86
2021/01/22 03:10:26;;;;;;;0.57;0.57;;;;;;;7.04;72.01;96780.44;4977895;28;20418;-86
2021/01/22 03:12:55;;;;;;;1.00;0.70;;;;;;;6.94;72.78;96797.91;4994696;28;20101;-86
2021/01/22 03:15:24;;;;;;;0.50;0.50;;;;;;;6.82;72.56;96797.22;4995163;28;20424;-86
2021/01/22 03:18:09;;;;;;;0.55;0.45;;;;;;;6.68;72.82;96811.50;4994618;28;20054;-86
2021/01/22 03:20:35;;;;;;;0.40;0.40;;;;;;;6.64;72.82;96813.56;4976563;28;20089;-83
2021/01/22 03:23:04;;;;;;;0.30;0.30;;;;;;;6.55;72.84;96812.63;4976796;28;20046;-84
2021/01/22 03:25:31;;;;;;;0.40;0.35;;;;;;;6.46;72.51;96811.63;4977714;28;20426;-85
2021/01/22 03:27:57;;;;;;;0.47;0.30;;;;;;;6.37;72.80;96828.94;4994557;28;20549;-85
2021/01/22 03:30:24;;;;;;;0.60;0.60;;;;;;;6.28;72.87;96829.72;4994671;28;20050;-85
2021/01/22 03:32:53;;;;;;;0.38;0.38;;;;;;;6.20;73.26;96850.47;4994682;28;20050;-85
2021/01/22 03:35:19;;;;;;;0.50;0.50;;;;;;;6.12;73.13;96841.50;4994712;28;20046;-86
2021/01/22 03:37:45;;;;;;;0.40;0.40;;;;;;;6.05;73.38;96845.59;4994634;28;20046;-84
2021/01/22 03:40:12;;;;;;;0.60;0.60;;;;;;;5.99;73.36;96848.72;4994796;28;20061;-84
2021/01/22 03:42:38;;;;;;;0.77;0.77;;;;;;;5.95;73.48;96868.22;4994135;28;20042;-84
2021/01/22 03:45:05;;;;;;;0.93;0.82;;;;;;;5.90;73.66;96879.03;4994712;28;20053;-84
2021/01/22 03:47:31;;;;;;;3.05;0.93;;;;;;;5.86;73.73;96894.13;4994960;28;20057;-84
2021/01/22 03:49:57;;;;;;;1.00;0.90;;;;;;;5.83;74.11;96890.97;4977381;28;20554;-83
2021/01/22 03:52:23;;;;;;;0.95;0.90;;;;;;;5.80;73.98;96899.84;4994425;28;20050;-84
2021/01/22 03:54:49;;;;;;;1.27;0.88;;;;;;;5.79;74.22;96906.03;4977510;28;20054;-85
2021/01/22 03:57:15;;;;;;;0.85;0.85;;;;;;;5.78;74.32;96908.78;4977310;28;20077;-83
2021/01/22 03:59:43;;;;;;;0.80;0.80;;;;;;;5.77;74.45;96912.34;4994731;28;20136;-84
2021/01/22 04:02:09;;;;;;;0.80;0.80;;;;;;;5.76;74.24;96915.91;4977050;28;20047;-84
2021/01/22 04:04:35;;;;;;;1.50;1.00;;;;;;;5.73;74.60;96919.59;4977245;28;20105;-85
2021/01/22 04:07:01;;;;;;;1.30;1.08;;;;;;;5.71;74.48;96924.13;4977089;28;20081;-85
2021/01/22 04:09:29;;;;;;;1.15;1.10;;;;;;;5.70;74.72;96945.97;4977330;28;20085;-85
2021/01/22 04:11:56;;;;;;;1.98;1.35;;;;;;;5.69;74.69;96946.91;4977246;28;20050;-83
2021/01/22 04:14:23;;;;;;;1.95;1.25;;;;;;;5.67;74.66;96951.41;4994499;28;20054;-84
2021/01/22 04:16:53;;;;;;;3.15;1.48;;;;;;;5.66;74.83;96936.72;4994472;28;20418;-85
2021/01/22 04:19:20;;;;;;;2.47;1.60;;;;;;;5.66;74.76;96944.56;4996285;28;20100;-85
2021/01/22 04:21:46;;;;;;;2.08;1.85;;;;;;;5.64;74.82;96955.13;4981104;28;20057;-85
2021/01/22 04:24:12;;;;;;;2.25;2.05;;;;;;;5.65;74.63;96948.13;4980454;28;20538;-85
2021/01/22 04:26:38;;;;;;;4.70;2.13;;;;;;;5.65;74.52;96953.34;4981446;28;20124;-85
2021/01/22 04:29:04;;;;;;;2.83;2.25;;;;;;;5.63;74.82;96952.63;4981121;28;20047;-85
2021/01/22 04:31:30;;;;;;;2.65;2.42;;;;;;;5.61;74.89;96945.75;4980947;28;20050;-85
2021/01/22 04:33:56;;;;;;;2.60;2.40;;;;;;;5.60;74.95;96959.75;4980567;28;20058;-85
2021/01/22 04:36:23;;;;;;;3.55;3.20;;;;;;;5.59;75.06;96976.38;4980566;28;20506;-85
2021/01/22 04:38:49;;;;;;;4.10;2.95;;;;;;;5.58;74.88;96987.75;4980598;28;20051;-85
2021/01/22 04:41:15;;;;;;;3.30;3.00;;;;;;;5.56;74.91;96996.66;4980403;28;20103;-84
2021/01/22 04:43:44;;;;;;;4.53;3.15;;;;;;;5.53;75.11;96999.53;4980679;28;20380;-85
2021/01/22 04:46:11;;;;;;;3.40;3.10;;;;;;;5.51;75.10;97012.69;4980441;28;20137;-85
2021/01/22 04:48:38;;;;;;;3.92;3.50;;;;;;;5.50;75.25;97018.88;4980520;28;20058;-85
2021/01/22 04:51:05;;;;;;;4.57;3.78;;;;;;;5.50;75.30;97020.66;4980460;28;20046;-84
2021/01/22 04:53:35;;;;;;;4.32;3.70;;;;;;;5.48;75.30;97028.59;4980272;28;20129;-84
2021/01/22 04:56:03;;;;;;;4.53;3.90;;;;;;;5.50;75.19;97018.03;4981093;28;20447;-84
2021/01/22 04:58:33;;;;;;;4.20;3.80;;;;;;;5.50;75.46;97018.03;4980325;28;20054;-83
2021/01/22 05:01:00;;;;;;;4.57;4.10;;;;;;;5.50;75.45;97025.88;4998068;28;20392;-85
2021/01/22 05:03:27;;;;;;;5.20;3.90;;;;;;;5.51;75.38;97033.56;4980483;28;20046;-85
2021/01/22 05:05:57;;;;;;;5.10;4.20;;;;;;;5.50;75.51;97024.09;4997537;28;20058;-85
2021/01/22 05:08:24;;;;;;;6.38;3.80;;;;;;;5.54;75.63;97024.66;4979985;28;20054;-83
2021/01/22 05:10:51;;;;;;;5.03;4.50;;;;;;;5.55;75.57;97018.50;4997446;28;20137;-84
2021/01/22 05:13:17;;;;;;;6.05;4.65;;;;;;;5.56;75.69;97036.63;4997485;28;20054;-83
2021/01/22 05:16:12;;;;;;;4.90;4.13;;;;;;;5.54;75.43;97038.56;4997357;28;20058;-83
2021/01/22 05:18:41;;;;;;;6.97;4.55;;;;;;;5.59;75.57;97040.78;4980399;28;20526;-83
2021/01/22 05:21:13;;;;;;;6.50;4.55;;;;;;;5.57;75.46;97032.25;4997151;28;20376;-84
2021/01/22 05:23:41;;;;;;;10.63;5.50;;;;;;;5.58;75.30;97044.34;4996764;28;20050;-84
2021/01/22 05:26:13;;;;;;;5.70;4.63;;;;;;;5.60;75.35;97058.09;4979989;28;20105;-83
2021/01/22 05:28:46;;;;;;;6.50;4.95;;;;;;;5.58;75.47;97052.97;4979979;28;20050;-84
2021/01/22 05:31:17;;;;;;;7.93;6.03;;;;;;;5.60;75.48;97061.53;4995980;28;20120;-84
2021/01/22 05:33:59;;;;;;;8.70;6.00;;;;;;;5.59;75.10;97057.28;4979679;28;20053;-84
2021/01/22 05:36:26;;;;;;;9.30;6.03;;;;;;;5.63;75.50;97060.47;4979503;28;20061;-84
2021/01/22 05:38:54;;;;;;;11.82;7.05;;;;;;;5.66;75.35;97067.22;4996949;28;20055;-84
2021/01/22 05:41:20;;;;;;;10.68;7.15;;;;;;;5.66;75.35;97068.06;4979391;28;20066;-84
2021/01/22 05:43:47;;;;;;;11.38;7.82;;;;;;;5.67;75.65;97069.69;4996836;28;20054;-84
2021/01/22 05:46:15;;;;;;;7.88;6.78;;;;;;;5.69;75.50;97064.38;4979509;28;20533;-85
2021/01/22 05:48:42;;;;;;;11.02;7.97;;;;;;;5.71;75.54;97075.50;4979757;28;20065;-84
2021/01/22 05:51:10;;;;;;;12.25;7.82;;;;;;;5.72;75.31;97077.97;4979273;28;20096;-84
2021/01/22 05:53:48;;;;;;;13.48;8.02;;;;;;;5.72;75.25;97075.38;4996735;28;20049;-84
2021/01/22 05:56:15;;;;;;;11.70;8.60;;;;;;;5.76;75.27;97081.19;4996777;28;20081;-84
2021/01/22 05:58:43;;;;;;;12.07;8.32;;;;;;;5.80;75.32;97079.16;4979391;28;20058;-84
2021/01/22 06:01:19;;;;;;;11.98;8.60;;;;;;;5.79;75.17;97083.53;4979453;28;20058;-85
2021/01/22 06:03:50;;;;;;;11.75;8.43;;;;;;;5.82;75.12;97085.06;4996186;28;20053;-85
2021/01/22 06:06:18;;;;;;;10.98;8.02;;;;;;;5.82;74.98;97092.91;4996272;28;20078;-85
2021/01/22 06:08:57;;;;;;;16.23;8.88;;;;;;;5.80;74.83;97089.59;4979090;28;20054;-84
2021/01/22 06:11:24;;;;;;;11.27;8.65;;;;;;;5.84;74.93;97104.06;4979150;28;20054;-84
2021/01/22 06:13:52;;;;;;;12.98;9.18;;;;;;;5.82;75.04;97098.13;4996016;28;20054;-84
2021/01/22 06:16:21;;;;;;;16.73;9.38;;;;;;;5.82;75.09;97109.41;4996370;28;20081;-85
2021/01/22 06:19:02;;;;;;;12.55;9.32;;;;;;;5.82;74.97;97111.16;4978677;28;20410;-85
2021/01/22 06:21:50;;;;;;;13.18;9.10;;;;;;;5.80;74.84;97123.53;4978728;28;20046;-84
2021/01/22 06:24:16;;;;;;;12.07;8.85;;;;;;;5.83;74.84;97129.31;4979171;28;20050;-85
2021/01/22 06:26:43;;;;;;;11.70;8.60;;;;;;;5.85;75.23;97124.00;4980698;28;20396;-84
2021/01/22 06:29:10;;;;;;;13.43;9.73;;;;;;;5.85;75.09;97130.06;4997906;28;20050;-84
2021/01/22 06:31:41;;;;;;;13.18;9.05;;;;;;;5.85;74.83;97132.66;4998268;28;20054;-84
2021/01/22 06:34:08;;;;;;;13.43;9.38;;;;;;;5.89;75.21;97140.22;4998195;28;20124;-84
2021/01/22 06:36:35;;;;;;;13.68;9.57;;;;;;;5.91;75.39;97146.16;4980241;28;20054;-85
2021/01/22 06:39:03;;;;;;;12.50;9.02;;;;;;;5.91;75.02;97139.16;4998199;28;20060;-84
2021/01/22 06:41:34;;;;;;;13.60;9.20;;;;;;;5.93;74.92;97139.03;4997261;28;20054;-85
2021/01/22 06:44:00;;;;;;;15.82;10.70;;;;;;;5.95;74.78;97158.03;4979836;28;20462;-84
2021/01/22 06:46:29;;;;;;;17.52;9.75;;;;;;;5.94;74.70;97148.53;4998366;28;20446;-84
2021/01/22 06:49:05;;;;;;;16.55;10.10;;;;;;;5.92;74.35;97151.28;4980491;28;20406;-84
2021/01/22 06:51:34;;;;;;;15.63;10.35;;;;;;;5.95;74.85;97147.59;4980275;28;20050;-85
2021/01/22 06:54:11;;;;;;;12.98;9.27;;;;;;;5.92;74.36;97148.66;4997595;28;20058;-85
2021/01/22 06:56:47;;;;;;;14.02;10.15;;;;;;;5.94;74.57;97159.00;4980544;28;20495;-83
2021/01/22 06:59:20;;;;;;;14.30;9.32;;;;;;;5.93;74.36;97152.94;4979743;28;20054;-82
2021/01/22 07:01:50;;;;;;;17.17;10.82;;;;;;;5.96;74.80;97157.06;4979328;28;20427;-83
2021/01/22 07:04:38;;;;;;;15.05;9.73;;;;;;;5.93;74.40;97163.38;4978349;28;20054;-85
2021/01/22 07:07:05;;;;;;;14.32;10.00;;;;;;;5.98;74.77;97165.63;4977956;28;20086;-86
2021/01/22 07:09:41;;;;;;;13.95;9.70;;;;;;;5.97;74.58;97177.00;4995150;28;20105;-85
2021/01/22 07:12:11;;;;;;;15.55;10.55;;;;;;;6.00;74.46;97171.53;4977709;28;20042;-83
2021/01/22 07:14:46;;;;;;;13.45;9.63;;;;;;;6.00;74.45;97182.81;4995209;28;20050;-85
2021/01/22 07:17:25;;;;;;;16.15;10.35;;;;;;;6.00;74.43;97182.81;4994950;28;20062;-85
2021/01/22 07:20:07;;;;;;;15.30;10.57;;;;;;;6.04;74.56;97183.44;4977954;28;20057;-86
2021/01/22 07:22:48;;;;;;;15.32;10.98;;;;;;;6.04;74.70;97191.25;4977601;28;20077;-85
2021/01/22 07:25:29;;;;;;;14.48;9.65;;;;;;;6.02;74.08;97194.91;4995083;28;20050;-84
2021/01/22 07:27:55;;;;;;;13.82;10.02;;;;;;;6.05;74.61;97194.72;4977747;28;20411;-85
2021/01/22 07:30:21;;;;;;;17.42;11.30;;;;;;;6.04;74.42;97199.09;4995147;28;20050;-84
2021/01/22 07:32:50;;;;;;;19.27;11.85;;;;;;;6.05;74.54;97205.16;4994948;28;20507;-85
2021/01/22 07:35:24;;;;;;;16.33;11.35;;;;;;;6.01;74.05;97207.13;4995097;28;20133;-85
2021/01/22 07:37:51;;;;;;;16.50;11.52;;;;;;;6.03;74.46;97204.41;4995737;28;20047;-86
2021/01/22 07:40:19;;;;;;;17.02;12.07;;;;;;;6.02;74.69;97214.00;4995755;28;20054;-85
2021/01/22 07:42:45;;;;;;;17.95;12.98;;;;;;;6.02;74.59;97216.63;4978014;28;20050;-84
2021/01/22 07:45:16;;;;;;;14.85;12.18;;;;;;;6.00;74.33;97222.00;4995310;28;20073;-84
2021/01/22 07:47:48;;;;;;;13.20;10.10;;;;;;;6.00;74.73;97232.44;4978412;28;20050;-85
2021/01/22 07:50:17;;;;;;;24.88;14.25;;;;;;;6.02;74.58;97234.09;4994715;28;20054;-85
2021/01/22 07:52:49;;;;;;;21.20;13.57;;;;;;;5.99;74.15;97228.16;4977118;28;20050;-85
2021/01/22 07:55:18;;;;;;;18.27;13.40;;;;;;;6.00;74.38;97237.66;4994107;28;20057;-85
2021/01/22 07:57:45;;;;;;;19.55;13.48;;;;;;;6.01;74.58;97238.47;4977337;28;20054;-85
2021/01/22 08:00:14;;;;;;;19.10;14.38;;;;;;;6.00;74.76;97236.81;4995523;28;20050;-85
2021/01/22 08:02:57;;;;;;;22.48;14.20;;;;;;;5.97;74.08;97242.28;4995817;28;20058;-85
2021/01/22 08:05:31;;;;;;;19.00;13.52;;;;;;;6.00;74.30;97242.03;4977797;28;20050;-84
2021/01/22 08:07:59;;;;;;;22.65;14.50;;;;;;;6.02;74.61;97250.56;4977418;28;20136;-85
2021/01/22 08:10:29;;;;;;;19.95;13.43;;;;;;;6.01;74.36;97256.75;4976964;28;20050;-85
2021/01/22 08:13:00;;;;;;;23.48;14.35;;;;;;;6.02;74.51;97255.78;4994118;28;20050;-85
2021/01/22 08:15:28;;;;;;;19.90;14.13;;;;;;;6.06;74.70;97256.44;4994035;28;20050;-85
2021/01/22 08:17:54;;;;;;;22.10;15.30;;;;;;;6.07;74.86;97253.72;5041403;22;20046;-82
2021/01/22 08:20:22;;;;;;;23.02;15.40;;;;;;;6.07;74.34;97264.16;5013961;28;20494;-82
2021/01/22 08:22:52;;;;;;;26.70;14.23;;;;;;;6.07;74.23;97258.94;5013686;28;20049;-82
2021/01/22 08:25:36;;;;;;;19.40;13.35;;;;;;;6.09;74.07;97275.28;5013775;28;20418;-81
2021/01/22 08:28:07;;;;;;;17.50;13.60;;;;;;;6.10;74.27;97269.13;5013744;28;20046;-82
2021/01/22 08:30:35;;;;;;;23.08;14.68;;;;;;;6.13;74.41;97278.50;5014037;28;20055;-81
2021/01/22 08:33:02;;;;;;;20.58;14.88;;;;;;;6.13;74.40;97268.03;5013423;28;20050;-81
2021/01/22 08:35:30;;;;;;;20.45;14.82;;;;;;;6.15;74.67;97265.31;5013634;28;20046;-81
2021/01/22 08:37:57;;;;;;;21.65;14.55;;;;;;;6.15;74.41;97262.69;5013540;28;20065;-81
2021/01/22 08:40:39;;;;;;;22.92;14.43;;;;;;;6.13;73.56;97266.28;5013676;28;20076;-87
2021/01/22 08:43:08;;;;;;;22.25;15.32;;;;;;;6.17;74.32;97266.03;5013327;28;20056;-81
2021/01/22 08:45:34;;;;;;;22.73;15.45;;;;;;;6.19;74.38;97269.34;5013543;28;20050;-78
2021/01/22 08:48:02;;;;;;;22.17;15.02;;;;;;;6.18;74.23;97271.16;5013212;28;20564;-81
2021/01/22 08:50:28;;;;;;;23.92;15.35;;;;;;;6.19;74.35;97283.25;5013400;28;20045;-82
2021/01/22 08:53:05;;;;;;;21.52;15.70;;;;;;;6.17;73.48;97286.94;5013372;28;20411;-81
2021/01/22 08:55:32;;;;;;;24.95;15.02;;;;;;;6.20;74.48;97290.13;5013418;28;20057;-80
2021/01/22 08:58:00;;;;;;;21.17;15.32;;;;;;;6.20;74.39;97295.34;5013474;28;20050;-80
2021/01/22 09:00:27;;;;;;;21.00;14.52;;;;;;;6.22;74.18;97303.91;5013491;28;20049;-80
2021/01/22 09:02:54;;;;;;;21.00;15.23;;;;;;;6.23;74.23;97297.72;5012896;28;20049;-80
2021/01/22 09:05:20;;;;;;;22.25;15.00;;;;;;;6.23;74.38;97312.56;5014645;28;20491;-81
2021/01/22 09:07:47;;;;;;;22.27;14.65;;;;;;;6.23;74.47;97309.94;5016936;28;20061;-81
2021/01/22 09:10:28;;;;;;;20.73;14.65;;;;;;;6.22;73.97;97316.97;5017057;28;20053;-81
2021/01/22 09:12:55;;;;;;;25.55;16.98;;;;;;;6.26;74.05;97325.38;5016649;28;20050;-81
2021/01/22 09:15:21;;;;;;;20.75;14.13;;;;;;;6.29;74.43;97311.25;5016948;28;20509;-81
2021/01/22 09:17:54;;;;;;;;;;;;;;;6.31;73.23;97322.44;5017373;28;20065;-81
2021/01/22 09:20:23;;;;;;;23.52;13.80;;;;;;;6.34;73.95;97319.53;5016609;28;20342;-81
2021/01/22 09:22:51;;;;;;;21.02;14.60;;;;;;;6.34;73.96;97328.22;5008810;28;20049;-81
2021/01/22 09:25:22;;;;;;;23.00;13.93;;;;;;;6.35;74.34;97323.81;5016843;28;20054;-81
2021/01/22 09:27:49;;;;;;;19.55;14.10;;;;;;;6.36;74.41;97321.09;5016334;28;20050;-81
2021/01/22 09:30:21;;;;;;;26.48;15.07;;;;;;;6.35;74.03;97329.88;5016641;28;20054;-81
2021/01/22 09:33:12;;;;;;;20.67;14.27;;;;;;;6.37;74.01;97333.22;5016064;28;20053;-81
2021/01/22 09:35:38;;;;;;;18.13;13.45;;;;;;;6.43;74.31;97341.53;5014766;28;20057;-80
2021/01/22 09:38:04;;;;;;;21.40;13.90;;;;;;;6.45;74.40;97334.38;5016272;28;20058;-81
2021/01/22 09:40:30;;;;;;;21.00;14.10;;;;;;;6.47;74.34;97358.63;5016429;28;20104;-80
2021/01/22 09:42:56;;;;;;;23.70;14.38;;;;;;;6.50;74.25;97355.75;5016212;28;20050;-80
2021/01/22 09:45:22;;;;;;;23.42;14.43;;;;;;;6.53;74.31;97347.66;5016365;28;20050;-81
2021/01/22 09:47:49;;;;;;;22.92;14.77;;;;;;;6.55;74.41;97351.00;5016276;28;20532;-80
2021/01/22 09:50:16;;;;;;;20.83;14.18;;;;;;;6.58;74.19;97355.16;5015350;28;20058;-80
2021/01/22 09:52:43;;;;;;;18.77;13.32;;;;;;;6.59;73.94;97357.66;5016069;28;20054;-81
2021/01/22 09:55:15;;;;;;;18.83;13.30;;;;;;;6.61;73.61;97366.19;5015647;28;20114;-81
2021/01/22 09:57:41;;;;;;;20.48;13.77;;;;;;;6.63;74.22;97364.31;5016332;28;20128;-80
2021/01/22 10:00:10;;;;;;;23.20;15.05;;;;;;;6.63;73.03;97379.16;5018477;28;20053;-83
2021/01/22 10:02:36;;;;;;;17.83;12.98;;;;;;;6.67;73.95;97371.88;5019822;28;20042;-81
2021/01/22 10:05:04;;;;;;;22.55;13.20;;;;;;;6.69;73.59;97377.84;5019172;28;20053;-82
2021/01/22 10:07:31;;;;;;;18.83;13.13;;;;;;;6.73;74.08;97384.47;5017448;28;20092;-81
2021/01/22 10:09:57;;;;;;;19.75;12.45;;;;;;;6.78;74.17;97387.56;5017516;28;20058;-82
2021/01/22 10:12:23;;;;;;;23.35;13.27;;;;;;;6.80;73.83;97403.94;5018408;28;20053;-81
2021/01/22 10:14:49;;;;;;;26.30;13.15;;;;;;;6.85;74.04;97395.75;5019853;28;20053;-82
2021/01/22 10:17:15;;;;;;;18.92;12.15;;;;;;;6.87;73.83;97399.88;5018012;28;20108;-81
2021/01/22 10:19:42;;;;;;;20.42;12.18;;;;;;;6.90;73.99;97402.25;5018943;28;20454;-82
2021/01/22 10:22:08;;;;;;;16.92;11.13;;;;;;;6.93;73.62;97402.97;5014278;28;20050;-82
2021/01/22 10:24:34;;;;;;;20.33;11.60;;;;;;;6.95;73.47;97407.13;5015719;28;20045;-82
2021/01/22 10:27:01;;;;;;;20.75;11.43;;;;;;;6.96;73.37;97421.88;5015766;28;20057;-82
2021/01/22 10:29:28;;;;;;;19.83;12.32;;;;;;;6.98;73.49;97413.88;5014165;28;20045;-81
2021/01/22 10:31:54;;;;;;;20.30;12.52;;;;;;;6.99;73.44;97426.03;5014285;28;20104;-82
2021/01/22 10:34:20;;;;;;;18.67;11.68;;;;;;;6.98;73.33;97429.56;5013856;28;20593;-82
2021/01/22 10:36:46;;;;;;;15.52;10.35;;;;;;;6.98;73.18;97422.56;5015153;28;20061;-82
2021/01/22 10:39:12;;;;;;;23.10;11.57;;;;;;;6.98;73.50;97419.09;5015238;28;20058;-82
2021/01/22 10:41:38;;;;;;;17.90;10.55;;;;;;;6.99;73.27;97426.03;5015395;28;20076;-82
2021/01/22 10:44:05;;;;;;;16.40;10.38;;;;;;;7.00;73.41;97432.91;5014719;28;20046;-81
2021/01/22 10:46:31;;;;;;;18.55;10.82;;;;;;;7.01;73.17;97447.66;5015318;28;20471;-81
2021/01/22 10:48:59;;;;;;;22.60;11.63;;;;;;;7.01;73.11;97443.25;5014870;28;20493;-82
2021/01/22 10:51:25;;;;;;;17.70;11.18;;;;;;;7.02;73.33;97446.69;5014951;28;20046;-82
2021/01/22 10:53:52;;;;;;;14.48;9.82;;;;;;;7.05;73.45;97449.06;5014894;28;20050;-82
2021/01/22 10:56:18;;;;;;;20.90;10.73;;;;;;;7.06;73.45;97450.72;4998433;28;20053;-81
2021/01/22 10:58:44;;;;;;;20.20;10.63;;;;;;;7.11;74.04;97455.59;4994634;28;20050;-80
2021/01/22 11:01:10;;;;;;;21.85;11.75;;;;;;;7.15;73.71;97470.09;4993595;28;20061;-82
2021/01/22 11:03:38;;;;;;;18.60;10.70;;;;;;;7.19;73.89;97447.97;4993866;28;20050;-82
2021/01/22 11:06:07;;;;;;;15.98;9.63;;;;;;;7.24;73.03;97460.66;4993577;28;20058;-81
2021/01/22 11:08:33;;;;;;;13.40;9.13;;;;;;;7.28;73.60;97452.47;4993797;28;20069;-81
2021/01/22 11:11:00;;;;;;;17.10;9.82;;;;;;;7.29;73.32;97451.50;4995165;28;20057;-82
2021/01/22 11:13:27;;;;;;;21.85;10.30;;;;;;;7.34;73.36;97451.13;4994752;28;20422;-81
2021/01/22 11:15:53;;;;;;;16.67;9.98;;;;;;;7.38;73.82;97455.16;4994984;28;20057;-82
2021/01/22 11:18:19;;;;;;;17.38;9.40;;;;;;;7.45;74.29;97452.03;4994782;28;20050;-81
2021/01/22 11:20:45;;;;;;;18.77;9.20;;;;;;;7.52;74.45;97454.03;4995001;28;20054;-82
2021/01/22 11:23:12;;;;;;;14.32;8.77;;;;;;;7.58;73.08;97465.78;4994931;28;20046;-82
2021/01/22 11:25:38;;;;;;;17.70;9.63;;;;;;;7.65;73.20;97463.50;4994952;28;20072;-82
2021/01/22 11:28:04;;;;;;;16.27;9.23;;;;;;;7.71;72.90;97462.16;4994808;28;20055;-81
2021/01/22 11:30:30;;;;;;;17.02;9.50;;;;;;;7.75;72.71;97474.03;4994878;28;20054;-82
2021/01/22 11:32:58;;;;;;;14.05;8.73;;;;;;;7.77;72.96;97461.63;4994355;28;20053;-82
2021/01/22 11:35:25;;;;;;;18.48;8.50;;;;;;;7.80;72.66;97471.88;4994769;28;20046;-82
2021/01/22 11:37:52;;;;;;;12.15;7.82;;;;;;;7.80;72.04;97482.34;4994327;28;20495;-82
2021/01/22 11:40:18;;;;;;;12.35;7.95;;;;;;;7.82;72.47;97476.03;4994717;28;20056;-82
2021/01/22 11:42:47;;;;;;;11.18;7.47;;;;;;;7.83;72.46;97476.88;4994071;28;20050;-81